<?xml version="1.0" encoding="UTF-8" standalone="no" ?>
<gpx xmlns="http://www.topografix.com/GPX/1/1" xmlns:xsi="http://www.w3.org/2001/XMLSchema-instance" xsi:schemaLocation="http://www.topografix.com/GPX/1/1 http://www.topografix.com/GPX/1/1/gpx.xsd" version="1.1" creator="VisuGPX - https://www.visugpx.com">
  <metadata>
    <name>Les Rousses Le Grand Cretet G1</name>
  </metadata>
  <trk>
    <name><![CDATA[G1-Le Grand Crétet-CODAP-15954117]]></name>
    <extensions>
      <line xmlns="http://www.topografix.com/GPX/gpx_style/0/2">
        <color>0000FF</color>
        <width>4</width>
      </line>
    </extensions>
    <trkseg>
      <trkpt lat="46.49169" lon="6.05873">
        <ele>1109</ele>
        <time>2023-01-05T10:12:55Z</time>
      </trkpt>
      <trkpt lat="46.49159" lon="6.0588">
        <ele>1107</ele>
        <time>2023-01-05T10:13:04Z</time>
      </trkpt>
      <trkpt lat="46.49166" lon="6.05898">
        <ele>1106</ele>
        <time>2023-01-05T10:13:15Z</time>
      </trkpt>
      <trkpt lat="46.49186" lon="6.05886">
        <ele>1112</ele>
        <time>2023-01-05T10:13:33Z</time>
      </trkpt>
      <trkpt lat="46.49198" lon="6.05876">
        <ele>1116</ele>
        <time>2023-01-05T10:13:44Z</time>
      </trkpt>
      <trkpt lat="46.49207" lon="6.05876">
        <ele>1118</ele>
        <time>2023-01-05T10:13:51Z</time>
      </trkpt>
      <trkpt lat="46.4922" lon="6.05891">
        <ele>1120</ele>
        <time>2023-01-05T10:14:04Z</time>
      </trkpt>
      <trkpt lat="46.49235" lon="6.05922">
        <ele>1120</ele>
        <time>2023-01-05T10:14:25Z</time>
      </trkpt>
      <trkpt lat="46.49244" lon="6.05932">
        <ele>1121</ele>
        <time>2023-01-05T10:14:34Z</time>
      </trkpt>
      <trkpt lat="46.49252" lon="6.05929">
        <ele>1124</ele>
        <time>2023-01-05T10:14:41Z</time>
      </trkpt>
      <trkpt lat="46.49259" lon="6.05921">
        <ele>1127</ele>
        <time>2023-01-05T10:14:48Z</time>
      </trkpt>
      <trkpt lat="46.4926" lon="6.05899">
        <ele>1130</ele>
        <time>2023-01-05T10:15:00Z</time>
      </trkpt>
      <trkpt lat="46.49265" lon="6.05882">
        <ele>1133</ele>
        <time>2023-01-05T10:15:10Z</time>
      </trkpt>
      <trkpt lat="46.49267" lon="6.05869">
        <ele>1135</ele>
        <time>2023-01-05T10:15:18Z</time>
      </trkpt>
      <trkpt lat="46.49286" lon="6.05835">
        <ele>1144</ele>
        <time>2023-01-05T10:15:42Z</time>
      </trkpt>
      <trkpt lat="46.49292" lon="6.05815">
        <ele>1148</ele>
        <time>2023-01-05T10:15:54Z</time>
      </trkpt>
      <trkpt lat="46.49305" lon="6.05799">
        <ele>1152</ele>
        <time>2023-01-05T10:16:07Z</time>
      </trkpt>
      <trkpt lat="46.49321" lon="6.05787">
        <ele>1157</ele>
        <time>2023-01-05T10:16:22Z</time>
      </trkpt>
      <trkpt lat="46.4933" lon="6.0579">
        <ele>1159</ele>
        <time>2023-01-05T10:16:29Z</time>
      </trkpt>
      <trkpt lat="46.49345" lon="6.05813">
        <ele>1162</ele>
        <time>2023-01-05T10:16:47Z</time>
      </trkpt>
      <trkpt lat="46.49354" lon="6.0583">
        <ele>1164</ele>
        <time>2023-01-05T10:16:58Z</time>
      </trkpt>
      <trkpt lat="46.49368" lon="6.0584">
        <ele>1167</ele>
        <time>2023-01-05T10:17:11Z</time>
      </trkpt>
      <trkpt lat="46.4938" lon="6.05851">
        <ele>1170</ele>
        <time>2023-01-05T10:17:22Z</time>
      </trkpt>
      <trkpt lat="46.49393" lon="6.05857">
        <ele>1173</ele>
        <time>2023-01-05T10:17:33Z</time>
      </trkpt>
      <trkpt lat="46.49398" lon="6.0585">
        <ele>1175</ele>
        <time>2023-01-05T10:17:39Z</time>
      </trkpt>
      <trkpt lat="46.49412" lon="6.05831">
        <ele>1179</ele>
        <time>2023-01-05T10:17:54Z</time>
      </trkpt>
      <trkpt lat="46.49423" lon="6.05816">
        <ele>1182</ele>
        <time>2023-01-05T10:18:06Z</time>
      </trkpt>
      <trkpt lat="46.4943" lon="6.05818">
        <ele>1183</ele>
        <time>2023-01-05T10:18:12Z</time>
      </trkpt>
      <trkpt lat="46.49449" lon="6.05802">
        <ele>1187</ele>
        <time>2023-01-05T10:18:30Z</time>
      </trkpt>
      <trkpt lat="46.49454" lon="6.05788">
        <ele>1188</ele>
        <time>2023-01-05T10:18:38Z</time>
      </trkpt>
      <trkpt lat="46.4946" lon="6.05785">
        <ele>1189</ele>
        <time>2023-01-05T10:18:43Z</time>
      </trkpt>
      <trkpt lat="46.49469" lon="6.05787">
        <ele>1191</ele>
        <time>2023-01-05T10:18:51Z</time>
      </trkpt>
      <trkpt lat="46.49501" lon="6.05762">
        <ele>1197</ele>
        <time>2023-01-05T10:19:20Z</time>
      </trkpt>
      <trkpt lat="46.49502" lon="6.05746">
        <ele>1197</ele>
        <time>2023-01-05T10:19:29Z</time>
      </trkpt>
      <trkpt lat="46.49518" lon="6.05747">
        <ele>1199</ele>
        <time>2023-01-05T10:19:41Z</time>
      </trkpt>
      <trkpt lat="46.49533" lon="6.05752">
        <ele>1201</ele>
        <time>2023-01-05T10:19:54Z</time>
      </trkpt>
      <trkpt lat="46.49544" lon="6.05766">
        <ele>1202</ele>
        <time>2023-01-05T10:20:05Z</time>
      </trkpt>
      <trkpt lat="46.49564" lon="6.0578">
        <ele>1204</ele>
        <time>2023-01-05T10:20:23Z</time>
      </trkpt>
      <trkpt lat="46.49578" lon="6.05777">
        <ele>1206</ele>
        <time>2023-01-05T10:20:35Z</time>
      </trkpt>
      <trkpt lat="46.49589" lon="6.05768">
        <ele>1207</ele>
        <time>2023-01-05T10:20:45Z</time>
      </trkpt>
      <trkpt lat="46.49606" lon="6.0577">
        <ele>1207</ele>
        <time>2023-01-05T10:20:58Z</time>
      </trkpt>
      <trkpt lat="46.49612" lon="6.05758">
        <ele>1208</ele>
        <time>2023-01-05T10:21:06Z</time>
      </trkpt>
      <trkpt lat="46.49625" lon="6.05754">
        <ele>1208</ele>
        <time>2023-01-05T10:21:17Z</time>
      </trkpt>
      <trkpt lat="46.49644" lon="6.0575">
        <ele>1209</ele>
        <time>2023-01-05T10:21:32Z</time>
      </trkpt>
      <trkpt lat="46.49659" lon="6.05734">
        <ele>1209</ele>
        <time>2023-01-05T10:21:47Z</time>
      </trkpt>
      <trkpt lat="46.49663" lon="6.05726">
        <ele>1210</ele>
        <time>2023-01-05T10:21:53Z</time>
      </trkpt>
      <trkpt lat="46.4969" lon="6.05714">
        <ele>1211</ele>
        <time>2023-01-05T10:22:15Z</time>
      </trkpt>
      <trkpt lat="46.49703" lon="6.05709">
        <ele>1211</ele>
        <time>2023-01-05T10:22:26Z</time>
      </trkpt>
      <trkpt lat="46.49723" lon="6.05748">
        <ele>1216</ele>
        <time>2023-01-05T10:22:53Z</time>
      </trkpt>
      <trkpt lat="46.49759" lon="6.05789">
        <ele>1220</ele>
        <time>2023-01-05T10:23:30Z</time>
      </trkpt>
      <trkpt lat="46.49809" lon="6.05832">
        <ele>1226</ele>
        <time>2023-01-05T10:24:16Z</time>
      </trkpt>
      <trkpt lat="46.49833" lon="6.0583">
        <ele>1228</ele>
        <time>2023-01-05T10:24:35Z</time>
      </trkpt>
      <trkpt lat="46.4986" lon="6.05822">
        <ele>1228</ele>
        <time>2023-01-05T10:24:57Z</time>
      </trkpt>
      <trkpt lat="46.49879" lon="6.0581">
        <ele>1228</ele>
        <time>2023-01-05T10:25:14Z</time>
      </trkpt>
      <trkpt lat="46.49899" lon="6.05809">
        <ele>1229</ele>
        <time>2023-01-05T10:25:30Z</time>
      </trkpt>
      <trkpt lat="46.4992" lon="6.05815">
        <ele>1230</ele>
        <time>2023-01-05T10:25:47Z</time>
      </trkpt>
      <trkpt lat="46.49935" lon="6.05831">
        <ele>1231</ele>
        <time>2023-01-05T10:26:02Z</time>
      </trkpt>
      <trkpt lat="46.4998" lon="6.0583">
        <ele>1230</ele>
        <time>2023-01-05T10:26:38Z</time>
      </trkpt>
      <trkpt lat="46.49953" lon="6.05788">
        <ele>1229</ele>
        <time>2023-01-05T10:27:10Z</time>
      </trkpt>
      <trkpt lat="46.49934" lon="6.05773">
        <ele>1228</ele>
        <time>2023-01-05T10:27:27Z</time>
      </trkpt>
      <trkpt lat="46.49885" lon="6.05742">
        <ele>1223</ele>
        <time>2023-01-05T10:28:10Z</time>
      </trkpt>
      <trkpt lat="46.49909" lon="6.0567">
        <ele>1229</ele>
        <time>2023-01-05T10:28:54Z</time>
      </trkpt>
      <trkpt lat="46.49907" lon="6.05647">
        <ele>1231</ele>
        <time>2023-01-05T10:29:07Z</time>
      </trkpt>
      <trkpt lat="46.49899" lon="6.05624">
        <ele>1232</ele>
        <time>2023-01-05T10:29:21Z</time>
      </trkpt>
      <trkpt lat="46.499" lon="6.05611">
        <ele>1234</ele>
        <time>2023-01-05T10:29:28Z</time>
      </trkpt>
      <trkpt lat="46.49903" lon="6.05599">
        <ele>1236</ele>
        <time>2023-01-05T10:29:35Z</time>
      </trkpt>
      <trkpt lat="46.49922" lon="6.0558">
        <ele>1243</ele>
        <time>2023-01-05T10:29:54Z</time>
      </trkpt>
      <trkpt lat="46.49935" lon="6.05539">
        <ele>1246</ele>
        <time>2023-01-05T10:30:19Z</time>
      </trkpt>
      <trkpt lat="46.49929" lon="6.05511">
        <ele>1248</ele>
        <time>2023-01-05T10:30:35Z</time>
      </trkpt>
      <trkpt lat="46.49922" lon="6.05496">
        <ele>1248</ele>
        <time>2023-01-05T10:30:45Z</time>
      </trkpt>
      <trkpt lat="46.49911" lon="6.0549">
        <ele>1247</ele>
        <time>2023-01-05T10:30:54Z</time>
      </trkpt>
      <trkpt lat="46.49892" lon="6.05454">
        <ele>1245</ele>
        <time>2023-01-05T10:31:19Z</time>
      </trkpt>
      <trkpt lat="46.49871" lon="6.05427">
        <ele>1243</ele>
        <time>2023-01-05T10:31:42Z</time>
      </trkpt>
      <trkpt lat="46.49854" lon="6.05402">
        <ele>1241</ele>
        <time>2023-01-05T10:32:01Z</time>
      </trkpt>
      <trkpt lat="46.49847" lon="6.0535">
        <ele>1241</ele>
        <time>2023-01-05T10:32:30Z</time>
      </trkpt>
      <trkpt lat="46.4986" lon="6.05309">
        <ele>1245</ele>
        <time>2023-01-05T10:32:55Z</time>
      </trkpt>
      <trkpt lat="46.49865" lon="6.05279">
        <ele>1246</ele>
        <time>2023-01-05T10:33:12Z</time>
      </trkpt>
      <trkpt lat="46.49852" lon="6.05243">
        <ele>1246</ele>
        <time>2023-01-05T10:33:34Z</time>
      </trkpt>
      <trkpt lat="46.49841" lon="6.05215">
        <ele>1246</ele>
        <time>2023-01-05T10:33:52Z</time>
      </trkpt>
      <trkpt lat="46.49832" lon="6.05196">
        <ele>1245</ele>
        <time>2023-01-05T10:34:05Z</time>
      </trkpt>
      <trkpt lat="46.49806" lon="6.05188">
        <ele>1236</ele>
        <time>2023-01-05T10:34:26Z</time>
      </trkpt>
      <trkpt lat="46.49745" lon="6.05169">
        <ele>1211</ele>
        <time>2023-01-05T10:35:16Z</time>
      </trkpt>
      <trkpt lat="46.49807" lon="6.05188">
        <ele>1237</ele>
        <time>2023-01-05T10:36:07Z</time>
      </trkpt>
      <trkpt lat="46.49832" lon="6.05196">
        <ele>1245</ele>
        <time>2023-01-05T10:36:27Z</time>
      </trkpt>
      <trkpt lat="46.49841" lon="6.05215">
        <ele>1246</ele>
        <time>2023-01-05T10:36:40Z</time>
      </trkpt>
      <trkpt lat="46.49852" lon="6.05243">
        <ele>1246</ele>
        <time>2023-01-05T10:36:58Z</time>
      </trkpt>
      <trkpt lat="46.49865" lon="6.05279">
        <ele>1246</ele>
        <time>2023-01-05T10:37:20Z</time>
      </trkpt>
      <trkpt lat="46.49859" lon="6.05309">
        <ele>1245</ele>
        <time>2023-01-05T10:37:38Z</time>
      </trkpt>
      <trkpt lat="46.49847" lon="6.0535">
        <ele>1241</ele>
        <time>2023-01-05T10:38:02Z</time>
      </trkpt>
      <trkpt lat="46.49852" lon="6.05403">
        <ele>1240</ele>
        <time>2023-01-05T10:38:32Z</time>
      </trkpt>
      <trkpt lat="46.49872" lon="6.05427">
        <ele>1243</ele>
        <time>2023-01-05T10:38:52Z</time>
      </trkpt>
      <trkpt lat="46.49891" lon="6.05453">
        <ele>1245</ele>
        <time>2023-01-05T10:39:13Z</time>
      </trkpt>
      <trkpt lat="46.49911" lon="6.0549">
        <ele>1247</ele>
        <time>2023-01-05T10:39:39Z</time>
      </trkpt>
      <trkpt lat="46.49921" lon="6.05496">
        <ele>1248</ele>
        <time>2023-01-05T10:39:48Z</time>
      </trkpt>
      <trkpt lat="46.49929" lon="6.05512">
        <ele>1248</ele>
        <time>2023-01-05T10:39:59Z</time>
      </trkpt>
      <trkpt lat="46.49935" lon="6.05539">
        <ele>1246</ele>
        <time>2023-01-05T10:40:14Z</time>
      </trkpt>
      <trkpt lat="46.49929" lon="6.0557">
        <ele>1244</ele>
        <time>2023-01-05T10:40:32Z</time>
      </trkpt>
      <trkpt lat="46.49976" lon="6.0561">
        <ele>1246</ele>
        <time>2023-01-05T10:41:16Z</time>
      </trkpt>
      <trkpt lat="46.50008" lon="6.05643">
        <ele>1247</ele>
        <time>2023-01-05T10:41:47Z</time>
      </trkpt>
      <trkpt lat="46.50033" lon="6.05677">
        <ele>1246</ele>
        <time>2023-01-05T10:42:15Z</time>
      </trkpt>
      <trkpt lat="46.50045" lon="6.05699">
        <ele>1245</ele>
        <time>2023-01-05T10:42:30Z</time>
      </trkpt>
      <trkpt lat="46.50057" lon="6.05731">
        <ele>1244</ele>
        <time>2023-01-05T10:42:50Z</time>
      </trkpt>
      <trkpt lat="46.50059" lon="6.05757">
        <ele>1243</ele>
        <time>2023-01-05T10:43:05Z</time>
      </trkpt>
      <trkpt lat="46.50063" lon="6.05779">
        <ele>1242</ele>
        <time>2023-01-05T10:43:17Z</time>
      </trkpt>
      <trkpt lat="46.50076" lon="6.05793">
        <ele>1242</ele>
        <time>2023-01-05T10:43:30Z</time>
      </trkpt>
      <trkpt lat="46.50104" lon="6.05796">
        <ele>1246</ele>
        <time>2023-01-05T10:43:53Z</time>
      </trkpt>
      <trkpt lat="46.50129" lon="6.05802">
        <ele>1248</ele>
        <time>2023-01-05T10:44:13Z</time>
      </trkpt>
      <trkpt lat="46.50141" lon="6.05814">
        <ele>1249</ele>
        <time>2023-01-05T10:44:24Z</time>
      </trkpt>
      <trkpt lat="46.50172" lon="6.0587">
        <ele>1250</ele>
        <time>2023-01-05T10:45:04Z</time>
      </trkpt>
      <trkpt lat="46.50186" lon="6.05875">
        <ele>1251</ele>
        <time>2023-01-05T10:45:16Z</time>
      </trkpt>
      <trkpt lat="46.50203" lon="6.05906">
        <ele>1252</ele>
        <time>2023-01-05T10:45:37Z</time>
      </trkpt>
      <trkpt lat="46.50205" lon="6.05934">
        <ele>1251</ele>
        <time>2023-01-05T10:45:53Z</time>
      </trkpt>
      <trkpt lat="46.50236" lon="6.05958">
        <ele>1254</ele>
        <time>2023-01-05T10:46:21Z</time>
      </trkpt>
      <trkpt lat="46.50258" lon="6.05962">
        <ele>1256</ele>
        <time>2023-01-05T10:46:39Z</time>
      </trkpt>
      <trkpt lat="46.50271" lon="6.05975">
        <ele>1258</ele>
        <time>2023-01-05T10:46:51Z</time>
      </trkpt>
      <trkpt lat="46.50263" lon="6.0595">
        <ele>1258</ele>
        <time>2023-01-05T10:47:07Z</time>
      </trkpt>
      <trkpt lat="46.50257" lon="6.05879">
        <ele>1259</ele>
        <time>2023-01-05T10:47:46Z</time>
      </trkpt>
      <trkpt lat="46.50264" lon="6.0585">
        <ele>1261</ele>
        <time>2023-01-05T10:48:03Z</time>
      </trkpt>
      <trkpt lat="46.5025" lon="6.05795">
        <ele>1261</ele>
        <time>2023-01-05T10:48:35Z</time>
      </trkpt>
      <trkpt lat="46.50245" lon="6.05775">
        <ele>1262</ele>
        <time>2023-01-05T10:48:47Z</time>
      </trkpt>
      <trkpt lat="46.50224" lon="6.05742">
        <ele>1262</ele>
        <time>2023-01-05T10:49:12Z</time>
      </trkpt>
      <trkpt lat="46.50219" lon="6.05734">
        <ele>1262</ele>
        <time>2023-01-05T10:49:18Z</time>
      </trkpt>
      <trkpt lat="46.50211" lon="6.0571">
        <ele>1261</ele>
        <time>2023-01-05T10:49:33Z</time>
      </trkpt>
      <trkpt lat="46.50209" lon="6.057">
        <ele>1262</ele>
        <time>2023-01-05T10:49:38Z</time>
      </trkpt>
      <trkpt lat="46.50209" lon="6.0569">
        <ele>1262</ele>
        <time>2023-01-05T10:49:44Z</time>
      </trkpt>
      <trkpt lat="46.50214" lon="6.05676">
        <ele>1263</ele>
        <time>2023-01-05T10:49:52Z</time>
      </trkpt>
      <trkpt lat="46.50227" lon="6.05659">
        <ele>1265</ele>
        <time>2023-01-05T10:50:06Z</time>
      </trkpt>
      <trkpt lat="46.50254" lon="6.05623">
        <ele>1269</ele>
        <time>2023-01-05T10:50:36Z</time>
      </trkpt>
      <trkpt lat="46.50288" lon="6.05584">
        <ele>1275</ele>
        <time>2023-01-05T10:51:10Z</time>
      </trkpt>
      <trkpt lat="46.50369" lon="6.05511">
        <ele>1284</ele>
        <time>2023-01-05T10:52:27Z</time>
      </trkpt>
      <trkpt lat="46.50412" lon="6.05471">
        <ele>1286</ele>
        <time>2023-01-05T10:53:08Z</time>
      </trkpt>
      <trkpt lat="46.50454" lon="6.0546">
        <ele>1290</ele>
        <time>2023-01-05T10:53:42Z</time>
      </trkpt>
      <trkpt lat="46.5047" lon="6.05446">
        <ele>1291</ele>
        <time>2023-01-05T10:53:57Z</time>
      </trkpt>
      <trkpt lat="46.50494" lon="6.05397">
        <ele>1290</ele>
        <time>2023-01-05T10:54:30Z</time>
      </trkpt>
      <trkpt lat="46.50504" lon="6.05384">
        <ele>1288</ele>
        <time>2023-01-05T10:54:41Z</time>
      </trkpt>
      <trkpt lat="46.5055" lon="6.05363">
        <ele>1286</ele>
        <time>2023-01-05T10:55:19Z</time>
      </trkpt>
      <trkpt lat="46.50564" lon="6.05363">
        <ele>1287</ele>
        <time>2023-01-05T10:55:31Z</time>
      </trkpt>
      <trkpt lat="46.50573" lon="6.05368">
        <ele>1288</ele>
        <time>2023-01-05T10:55:38Z</time>
      </trkpt>
      <trkpt lat="46.50578" lon="6.05381">
        <ele>1290</ele>
        <time>2023-01-05T10:55:46Z</time>
      </trkpt>
      <trkpt lat="46.50588" lon="6.05376">
        <ele>1289</ele>
        <time>2023-01-05T10:55:55Z</time>
      </trkpt>
      <trkpt lat="46.506" lon="6.05376">
        <ele>1288</ele>
        <time>2023-01-05T10:56:05Z</time>
      </trkpt>
      <trkpt lat="46.50627" lon="6.05387">
        <ele>1287</ele>
        <time>2023-01-05T10:56:27Z</time>
      </trkpt>
      <trkpt lat="46.50649" lon="6.0538">
        <ele>1285</ele>
        <time>2023-01-05T10:56:45Z</time>
      </trkpt>
      <trkpt lat="46.50658" lon="6.05378">
        <ele>1284</ele>
        <time>2023-01-05T10:56:52Z</time>
      </trkpt>
      <trkpt lat="46.50712" lon="6.05416">
        <ele>1282</ele>
        <time>2023-01-05T10:57:40Z</time>
      </trkpt>
      <trkpt lat="46.50728" lon="6.05414">
        <ele>1281</ele>
        <time>2023-01-05T10:57:53Z</time>
      </trkpt>
      <trkpt lat="46.50754" lon="6.05408">
        <ele>1279</ele>
        <time>2023-01-05T10:58:14Z</time>
      </trkpt>
      <trkpt lat="46.50776" lon="6.05388">
        <ele>1278</ele>
        <time>2023-01-05T10:58:35Z</time>
      </trkpt>
      <trkpt lat="46.50791" lon="6.05378">
        <ele>1277</ele>
        <time>2023-01-05T10:58:48Z</time>
      </trkpt>
      <trkpt lat="46.50812" lon="6.05374">
        <ele>1276</ele>
        <time>2023-01-05T10:59:05Z</time>
      </trkpt>
      <trkpt lat="46.5083" lon="6.05382">
        <ele>1276</ele>
        <time>2023-01-05T10:59:20Z</time>
      </trkpt>
      <trkpt lat="46.50838" lon="6.05404">
        <ele>1276</ele>
        <time>2023-01-05T10:59:34Z</time>
      </trkpt>
      <trkpt lat="46.50864" lon="6.05426">
        <ele>1274</ele>
        <time>2023-01-05T10:59:58Z</time>
      </trkpt>
      <trkpt lat="46.5087" lon="6.0544">
        <ele>1273</ele>
        <time>2023-01-05T11:00:07Z</time>
      </trkpt>
      <trkpt lat="46.50871" lon="6.05452">
        <ele>1272</ele>
        <time>2023-01-05T11:00:14Z</time>
      </trkpt>
      <trkpt lat="46.50875" lon="6.0546">
        <ele>1272</ele>
        <time>2023-01-05T11:00:19Z</time>
      </trkpt>
      <trkpt lat="46.50887" lon="6.05469">
        <ele>1270</ele>
        <time>2023-01-05T11:00:30Z</time>
      </trkpt>
      <trkpt lat="46.50899" lon="6.05479">
        <ele>1268</ele>
        <time>2023-01-05T11:00:41Z</time>
      </trkpt>
      <trkpt lat="46.50907" lon="6.05496">
        <ele>1266</ele>
        <time>2023-01-05T11:00:53Z</time>
      </trkpt>
      <trkpt lat="46.50912" lon="6.05501">
        <ele>1266</ele>
        <time>2023-01-05T11:00:57Z</time>
      </trkpt>
      <trkpt lat="46.50917" lon="6.0552">
        <ele>1266</ele>
        <time>2023-01-05T11:01:09Z</time>
      </trkpt>
      <trkpt lat="46.50922" lon="6.05531">
        <ele>1266</ele>
        <time>2023-01-05T11:01:16Z</time>
      </trkpt>
      <trkpt lat="46.50931" lon="6.05539">
        <ele>1265</ele>
        <time>2023-01-05T11:01:24Z</time>
      </trkpt>
      <trkpt lat="46.50943" lon="6.05546">
        <ele>1264</ele>
        <time>2023-01-05T11:01:35Z</time>
      </trkpt>
      <trkpt lat="46.50958" lon="6.05553">
        <ele>1263</ele>
        <time>2023-01-05T11:01:47Z</time>
      </trkpt>
      <trkpt lat="46.50972" lon="6.05566">
        <ele>1262</ele>
        <time>2023-01-05T11:02:01Z</time>
      </trkpt>
      <trkpt lat="46.50999" lon="6.0561">
        <ele>1261</ele>
        <time>2023-01-05T11:02:33Z</time>
      </trkpt>
      <trkpt lat="46.50972" lon="6.05624">
        <ele>1264</ele>
        <time>2023-01-05T11:02:56Z</time>
      </trkpt>
      <trkpt lat="46.5094" lon="6.05633">
        <ele>1267</ele>
        <time>2023-01-05T11:03:22Z</time>
      </trkpt>
      <trkpt lat="46.50915" lon="6.05658">
        <ele>1271</ele>
        <time>2023-01-05T11:03:46Z</time>
      </trkpt>
      <trkpt lat="46.50895" lon="6.05697">
        <ele>1274</ele>
        <time>2023-01-05T11:04:13Z</time>
      </trkpt>
      <trkpt lat="46.50863" lon="6.05755">
        <ele>1276</ele>
        <time>2023-01-05T11:04:54Z</time>
      </trkpt>
      <trkpt lat="46.50831" lon="6.05768">
        <ele>1277</ele>
        <time>2023-01-05T11:05:21Z</time>
      </trkpt>
      <trkpt lat="46.50803" lon="6.05779">
        <ele>1276</ele>
        <time>2023-01-05T11:05:44Z</time>
      </trkpt>
      <trkpt lat="46.50768" lon="6.05785">
        <ele>1275</ele>
        <time>2023-01-05T11:06:12Z</time>
      </trkpt>
      <trkpt lat="46.50741" lon="6.05791">
        <ele>1275</ele>
        <time>2023-01-05T11:06:34Z</time>
      </trkpt>
      <trkpt lat="46.50709" lon="6.05826">
        <ele>1274</ele>
        <time>2023-01-05T11:07:06Z</time>
      </trkpt>
      <trkpt lat="46.50687" lon="6.05869">
        <ele>1272</ele>
        <time>2023-01-05T11:07:36Z</time>
      </trkpt>
      <trkpt lat="46.50663" lon="6.05871">
        <ele>1273</ele>
        <time>2023-01-05T11:07:55Z</time>
      </trkpt>
      <trkpt lat="46.50633" lon="6.05863">
        <ele>1272</ele>
        <time>2023-01-05T11:08:19Z</time>
      </trkpt>
      <trkpt lat="46.50588" lon="6.05862">
        <ele>1271</ele>
        <time>2023-01-05T11:08:55Z</time>
      </trkpt>
      <trkpt lat="46.50546" lon="6.05826">
        <ele>1273</ele>
        <time>2023-01-05T11:09:34Z</time>
      </trkpt>
      <trkpt lat="46.50535" lon="6.0581">
        <ele>1275</ele>
        <time>2023-01-05T11:09:47Z</time>
      </trkpt>
      <trkpt lat="46.50525" lon="6.05804">
        <ele>1276</ele>
        <time>2023-01-05T11:09:56Z</time>
      </trkpt>
      <trkpt lat="46.5051" lon="6.05805">
        <ele>1276</ele>
        <time>2023-01-05T11:10:08Z</time>
      </trkpt>
      <trkpt lat="46.505" lon="6.05809">
        <ele>1276</ele>
        <time>2023-01-05T11:10:16Z</time>
      </trkpt>
      <trkpt lat="46.5049" lon="6.05822">
        <ele>1275</ele>
        <time>2023-01-05T11:10:27Z</time>
      </trkpt>
      <trkpt lat="46.50476" lon="6.05827">
        <ele>1274</ele>
        <time>2023-01-05T11:10:38Z</time>
      </trkpt>
      <trkpt lat="46.50453" lon="6.05821">
        <ele>1275</ele>
        <time>2023-01-05T11:10:57Z</time>
      </trkpt>
      <trkpt lat="46.50437" lon="6.05823">
        <ele>1274</ele>
        <time>2023-01-05T11:11:10Z</time>
      </trkpt>
      <trkpt lat="46.50432" lon="6.05821">
        <ele>1274</ele>
        <time>2023-01-05T11:11:14Z</time>
      </trkpt>
      <trkpt lat="46.50415" lon="6.05803">
        <ele>1276</ele>
        <time>2023-01-05T11:11:31Z</time>
      </trkpt>
      <trkpt lat="46.50406" lon="6.058">
        <ele>1276</ele>
        <time>2023-01-05T11:11:38Z</time>
      </trkpt>
      <trkpt lat="46.50396" lon="6.05801">
        <ele>1275</ele>
        <time>2023-01-05T11:11:46Z</time>
      </trkpt>
      <trkpt lat="46.50378" lon="6.05812">
        <ele>1274</ele>
        <time>2023-01-05T11:12:02Z</time>
      </trkpt>
      <trkpt lat="46.50367" lon="6.05812">
        <ele>1273</ele>
        <time>2023-01-05T11:12:11Z</time>
      </trkpt>
      <trkpt lat="46.50359" lon="6.05804">
        <ele>1273</ele>
        <time>2023-01-05T11:12:18Z</time>
      </trkpt>
      <trkpt lat="46.50348" lon="6.05787">
        <ele>1274</ele>
        <time>2023-01-05T11:12:31Z</time>
      </trkpt>
      <trkpt lat="46.50339" lon="6.05785">
        <ele>1274</ele>
        <time>2023-01-05T11:12:39Z</time>
      </trkpt>
      <trkpt lat="46.50331" lon="6.05788">
        <ele>1273</ele>
        <time>2023-01-05T11:12:45Z</time>
      </trkpt>
      <trkpt lat="46.50325" lon="6.05797">
        <ele>1272</ele>
        <time>2023-01-05T11:12:52Z</time>
      </trkpt>
      <trkpt lat="46.50319" lon="6.05812">
        <ele>1270</ele>
        <time>2023-01-05T11:13:02Z</time>
      </trkpt>
      <trkpt lat="46.50313" lon="6.05821">
        <ele>1269</ele>
        <time>2023-01-05T11:13:09Z</time>
      </trkpt>
      <trkpt lat="46.50303" lon="6.05831">
        <ele>1267</ele>
        <time>2023-01-05T11:13:18Z</time>
      </trkpt>
      <trkpt lat="46.50287" lon="6.05841">
        <ele>1264</ele>
        <time>2023-01-05T11:13:32Z</time>
      </trkpt>
      <trkpt lat="46.50263" lon="6.05851">
        <ele>1260</ele>
        <time>2023-01-05T11:13:52Z</time>
      </trkpt>
      <trkpt lat="46.50261" lon="6.05894">
        <ele>1259</ele>
        <time>2023-01-05T11:14:16Z</time>
      </trkpt>
      <trkpt lat="46.50263" lon="6.05906">
        <ele>1259</ele>
        <time>2023-01-05T11:14:23Z</time>
      </trkpt>
      <trkpt lat="46.50272" lon="6.05928">
        <ele>1260</ele>
        <time>2023-01-05T11:14:37Z</time>
      </trkpt>
      <trkpt lat="46.50283" lon="6.05954">
        <ele>1260</ele>
        <time>2023-01-05T11:14:54Z</time>
      </trkpt>
      <trkpt lat="46.50287" lon="6.05967">
        <ele>1260</ele>
        <time>2023-01-05T11:15:01Z</time>
      </trkpt>
      <trkpt lat="46.50286" lon="6.06005">
        <ele>1258</ele>
        <time>2023-01-05T11:15:22Z</time>
      </trkpt>
      <trkpt lat="46.50289" lon="6.06023">
        <ele>1259</ele>
        <time>2023-01-05T11:15:33Z</time>
      </trkpt>
      <trkpt lat="46.50308" lon="6.06073">
        <ele>1260</ele>
        <time>2023-01-05T11:16:04Z</time>
      </trkpt>
      <trkpt lat="46.50337" lon="6.06131">
        <ele>1259</ele>
        <time>2023-01-05T11:16:44Z</time>
      </trkpt>
      <trkpt lat="46.50348" lon="6.06164">
        <ele>1258</ele>
        <time>2023-01-05T11:17:04Z</time>
      </trkpt>
      <trkpt lat="46.50366" lon="6.06193">
        <ele>1256</ele>
        <time>2023-01-05T11:17:25Z</time>
      </trkpt>
      <trkpt lat="46.5038" lon="6.06212">
        <ele>1254</ele>
        <time>2023-01-05T11:17:41Z</time>
      </trkpt>
      <trkpt lat="46.50394" lon="6.06228">
        <ele>1252</ele>
        <time>2023-01-05T11:17:55Z</time>
      </trkpt>
      <trkpt lat="46.50398" lon="6.06241">
        <ele>1251</ele>
        <time>2023-01-05T11:18:03Z</time>
      </trkpt>
      <trkpt lat="46.50406" lon="6.06273">
        <ele>1249</ele>
        <time>2023-01-05T11:18:22Z</time>
      </trkpt>
      <trkpt lat="46.50417" lon="6.0634">
        <ele>1246</ele>
        <time>2023-01-05T11:19:00Z</time>
      </trkpt>
      <trkpt lat="46.50423" lon="6.06338">
        <ele>1246</ele>
        <time>2023-01-05T11:19:04Z</time>
      </trkpt>
      <trkpt lat="46.50464" lon="6.06346">
        <ele>1246</ele>
        <time>2023-01-05T11:19:38Z</time>
      </trkpt>
      <trkpt lat="46.5052" lon="6.06356">
        <ele>1248</ele>
        <time>2023-01-05T11:20:23Z</time>
      </trkpt>
      <trkpt lat="46.5053" lon="6.06359">
        <ele>1248</ele>
        <time>2023-01-05T11:20:31Z</time>
      </trkpt>
      <trkpt lat="46.50539" lon="6.06369">
        <ele>1249</ele>
        <time>2023-01-05T11:20:40Z</time>
      </trkpt>
      <trkpt lat="46.50557" lon="6.06404">
        <ele>1250</ele>
        <time>2023-01-05T11:21:04Z</time>
      </trkpt>
      <trkpt lat="46.50591" lon="6.06457">
        <ele>1251</ele>
        <time>2023-01-05T11:21:44Z</time>
      </trkpt>
      <trkpt lat="46.506" lon="6.06475">
        <ele>1251</ele>
        <time>2023-01-05T11:21:56Z</time>
      </trkpt>
      <trkpt lat="46.50609" lon="6.06488">
        <ele>1251</ele>
        <time>2023-01-05T11:22:06Z</time>
      </trkpt>
      <trkpt lat="46.50626" lon="6.06508">
        <ele>1252</ele>
        <time>2023-01-05T11:22:24Z</time>
      </trkpt>
      <trkpt lat="46.50631" lon="6.06518">
        <ele>1252</ele>
        <time>2023-01-05T11:22:31Z</time>
      </trkpt>
      <trkpt lat="46.50636" lon="6.06532">
        <ele>1252</ele>
        <time>2023-01-05T11:22:39Z</time>
      </trkpt>
      <trkpt lat="46.50641" lon="6.06553">
        <ele>1251</ele>
        <time>2023-01-05T11:22:52Z</time>
      </trkpt>
      <trkpt lat="46.50647" lon="6.06574">
        <ele>1250</ele>
        <time>2023-01-05T11:23:04Z</time>
      </trkpt>
      <trkpt lat="46.5065" lon="6.06586">
        <ele>1250</ele>
        <time>2023-01-05T11:23:11Z</time>
      </trkpt>
      <trkpt lat="46.50658" lon="6.06599">
        <ele>1250</ele>
        <time>2023-01-05T11:23:21Z</time>
      </trkpt>
      <trkpt lat="46.50692" lon="6.06642">
        <ele>1253</ele>
        <time>2023-01-05T11:23:57Z</time>
      </trkpt>
      <trkpt lat="46.50702" lon="6.06658">
        <ele>1254</ele>
        <time>2023-01-05T11:24:09Z</time>
      </trkpt>
      <trkpt lat="46.50708" lon="6.06673">
        <ele>1254</ele>
        <time>2023-01-05T11:24:18Z</time>
      </trkpt>
      <trkpt lat="46.50711" lon="6.06684">
        <ele>1254</ele>
        <time>2023-01-05T11:24:25Z</time>
      </trkpt>
      <trkpt lat="46.50717" lon="6.06723">
        <ele>1255</ele>
        <time>2023-01-05T11:24:47Z</time>
      </trkpt>
      <trkpt lat="46.50721" lon="6.0674">
        <ele>1255</ele>
        <time>2023-01-05T11:24:57Z</time>
      </trkpt>
      <trkpt lat="46.50736" lon="6.06786">
        <ele>1255</ele>
        <time>2023-01-05T11:25:25Z</time>
      </trkpt>
      <trkpt lat="46.50763" lon="6.06853">
        <ele>1256</ele>
        <time>2023-01-05T11:26:08Z</time>
      </trkpt>
      <trkpt lat="46.50779" lon="6.06886">
        <ele>1258</ele>
        <time>2023-01-05T11:26:30Z</time>
      </trkpt>
      <trkpt lat="46.50834" lon="6.0697">
        <ele>1263</ele>
        <time>2023-01-05T11:27:34Z</time>
      </trkpt>
      <trkpt lat="46.5079" lon="6.06931">
        <ele>1259</ele>
        <time>2023-01-05T11:28:15Z</time>
      </trkpt>
      <trkpt lat="46.50775" lon="6.06923">
        <ele>1258</ele>
        <time>2023-01-05T11:28:28Z</time>
      </trkpt>
      <trkpt lat="46.50762" lon="6.0691">
        <ele>1257</ele>
        <time>2023-01-05T11:28:41Z</time>
      </trkpt>
      <trkpt lat="46.50728" lon="6.06908">
        <ele>1255</ele>
        <time>2023-01-05T11:29:08Z</time>
      </trkpt>
      <trkpt lat="46.50703" lon="6.06918">
        <ele>1252</ele>
        <time>2023-01-05T11:29:29Z</time>
      </trkpt>
      <trkpt lat="46.50687" lon="6.06929">
        <ele>1250</ele>
        <time>2023-01-05T11:29:43Z</time>
      </trkpt>
      <trkpt lat="46.50673" lon="6.06927">
        <ele>1249</ele>
        <time>2023-01-05T11:29:54Z</time>
      </trkpt>
      <trkpt lat="46.50643" lon="6.06901">
        <ele>1247</ele>
        <time>2023-01-05T11:30:22Z</time>
      </trkpt>
      <trkpt lat="46.50624" lon="6.06862">
        <ele>1246</ele>
        <time>2023-01-05T11:30:48Z</time>
      </trkpt>
      <trkpt lat="46.50591" lon="6.06817">
        <ele>1242</ele>
        <time>2023-01-05T11:31:25Z</time>
      </trkpt>
      <trkpt lat="46.50574" lon="6.06791">
        <ele>1243</ele>
        <time>2023-01-05T11:31:44Z</time>
      </trkpt>
      <trkpt lat="46.50548" lon="6.06763">
        <ele>1242</ele>
        <time>2023-01-05T11:32:10Z</time>
      </trkpt>
      <trkpt lat="46.50535" lon="6.0676">
        <ele>1241</ele>
        <time>2023-01-05T11:32:21Z</time>
      </trkpt>
      <trkpt lat="46.50528" lon="6.06763">
        <ele>1240</ele>
        <time>2023-01-05T11:32:27Z</time>
      </trkpt>
      <trkpt lat="46.50524" lon="6.06769">
        <ele>1240</ele>
        <time>2023-01-05T11:32:31Z</time>
      </trkpt>
      <trkpt lat="46.50535" lon="6.06791">
        <ele>1240</ele>
        <time>2023-01-05T11:32:46Z</time>
      </trkpt>
      <trkpt lat="46.50567" lon="6.06851">
        <ele>1240</ele>
        <time>2023-01-05T11:33:28Z</time>
      </trkpt>
      <trkpt lat="46.50603" lon="6.0694">
        <ele>1244</ele>
        <time>2023-01-05T11:34:25Z</time>
      </trkpt>
      <trkpt lat="46.50611" lon="6.06964">
        <ele>1246</ele>
        <time>2023-01-05T11:34:40Z</time>
      </trkpt>
      <trkpt lat="46.50625" lon="6.06987">
        <ele>1247</ele>
        <time>2023-01-05T11:34:57Z</time>
      </trkpt>
      <trkpt lat="46.50635" lon="6.07006">
        <ele>1248</ele>
        <time>2023-01-05T11:35:10Z</time>
      </trkpt>
      <trkpt lat="46.50642" lon="6.07017">
        <ele>1249</ele>
        <time>2023-01-05T11:35:18Z</time>
      </trkpt>
      <trkpt lat="46.50653" lon="6.07027">
        <ele>1250</ele>
        <time>2023-01-05T11:35:28Z</time>
      </trkpt>
      <trkpt lat="46.50662" lon="6.07032">
        <ele>1250</ele>
        <time>2023-01-05T11:35:36Z</time>
      </trkpt>
      <trkpt lat="46.50669" lon="6.07042">
        <ele>1252</ele>
        <time>2023-01-05T11:35:44Z</time>
      </trkpt>
      <trkpt lat="46.50694" lon="6.07066">
        <ele>1256</ele>
        <time>2023-01-05T11:36:08Z</time>
      </trkpt>
      <trkpt lat="46.50723" lon="6.07086">
        <ele>1260</ele>
        <time>2023-01-05T11:36:34Z</time>
      </trkpt>
      <trkpt lat="46.50733" lon="6.07108">
        <ele>1261</ele>
        <time>2023-01-05T11:36:48Z</time>
      </trkpt>
      <trkpt lat="46.5074" lon="6.07152">
        <ele>1264</ele>
        <time>2023-01-05T11:37:13Z</time>
      </trkpt>
      <trkpt lat="46.50775" lon="6.07201">
        <ele>1268</ele>
        <time>2023-01-05T11:37:52Z</time>
      </trkpt>
      <trkpt lat="46.50786" lon="6.07208">
        <ele>1268</ele>
        <time>2023-01-05T11:38:02Z</time>
      </trkpt>
      <trkpt lat="46.50808" lon="6.07247">
        <ele>1267</ele>
        <time>2023-01-05T11:38:29Z</time>
      </trkpt>
      <trkpt lat="46.50827" lon="6.07269">
        <ele>1267</ele>
        <time>2023-01-05T11:38:49Z</time>
      </trkpt>
      <trkpt lat="46.50848" lon="6.0729">
        <ele>1268</ele>
        <time>2023-01-05T11:39:09Z</time>
      </trkpt>
      <trkpt lat="46.50865" lon="6.07315">
        <ele>1270</ele>
        <time>2023-01-05T11:39:29Z</time>
      </trkpt>
      <trkpt lat="46.50878" lon="6.07356">
        <ele>1271</ele>
        <time>2023-01-05T11:39:53Z</time>
      </trkpt>
      <trkpt lat="46.50908" lon="6.07424">
        <ele>1276</ele>
        <time>2023-01-05T11:40:38Z</time>
      </trkpt>
      <trkpt lat="46.50921" lon="6.07437">
        <ele>1277</ele>
        <time>2023-01-05T11:40:51Z</time>
      </trkpt>
      <trkpt lat="46.50929" lon="6.07457">
        <ele>1278</ele>
        <time>2023-01-05T11:41:03Z</time>
      </trkpt>
      <trkpt lat="46.50926" lon="6.07462">
        <ele>1278</ele>
        <time>2023-01-05T11:41:07Z</time>
      </trkpt>
      <trkpt lat="46.50921" lon="6.07464">
        <ele>1278</ele>
        <time>2023-01-05T11:41:11Z</time>
      </trkpt>
      <trkpt lat="46.50914" lon="6.07464">
        <ele>1278</ele>
        <time>2023-01-05T11:41:17Z</time>
      </trkpt>
      <trkpt lat="46.50905" lon="6.07459">
        <ele>1277</ele>
        <time>2023-01-05T11:41:24Z</time>
      </trkpt>
      <trkpt lat="46.5086" lon="6.07433">
        <ele>1275</ele>
        <time>2023-01-05T11:42:03Z</time>
      </trkpt>
      <trkpt lat="46.50878" lon="6.07466">
        <ele>1276</ele>
        <time>2023-01-05T11:42:26Z</time>
      </trkpt>
      <trkpt lat="46.50895" lon="6.07491">
        <ele>1278</ele>
        <time>2023-01-05T11:42:46Z</time>
      </trkpt>
      <trkpt lat="46.50917" lon="6.07524">
        <ele>1280</ele>
        <time>2023-01-05T11:43:11Z</time>
      </trkpt>
      <trkpt lat="46.5094" lon="6.07566">
        <ele>1283</ele>
        <time>2023-01-05T11:43:41Z</time>
      </trkpt>
      <trkpt lat="46.5095" lon="6.07588">
        <ele>1283</ele>
        <time>2023-01-05T11:43:55Z</time>
      </trkpt>
      <trkpt lat="46.5094" lon="6.07567">
        <ele>1283</ele>
        <time>2023-01-05T11:44:09Z</time>
      </trkpt>
      <trkpt lat="46.50916" lon="6.07525">
        <ele>1280</ele>
        <time>2023-01-05T11:44:39Z</time>
      </trkpt>
      <trkpt lat="46.50894" lon="6.07492">
        <ele>1278</ele>
        <time>2023-01-05T11:45:05Z</time>
      </trkpt>
      <trkpt lat="46.50878" lon="6.07467">
        <ele>1276</ele>
        <time>2023-01-05T11:45:24Z</time>
      </trkpt>
      <trkpt lat="46.5086" lon="6.07433">
        <ele>1275</ele>
        <time>2023-01-05T11:45:47Z</time>
      </trkpt>
      <trkpt lat="46.50823" lon="6.07364">
        <ele>1271</ele>
        <time>2023-01-05T11:46:35Z</time>
      </trkpt>
      <trkpt lat="46.50812" lon="6.07346">
        <ele>1270</ele>
        <time>2023-01-05T11:46:49Z</time>
      </trkpt>
      <trkpt lat="46.50803" lon="6.07336">
        <ele>1270</ele>
        <time>2023-01-05T11:46:58Z</time>
      </trkpt>
      <trkpt lat="46.50789" lon="6.07323">
        <ele>1271</ele>
        <time>2023-01-05T11:47:11Z</time>
      </trkpt>
      <trkpt lat="46.50778" lon="6.07317">
        <ele>1271</ele>
        <time>2023-01-05T11:47:20Z</time>
      </trkpt>
      <trkpt lat="46.50766" lon="6.07309">
        <ele>1271</ele>
        <time>2023-01-05T11:47:31Z</time>
      </trkpt>
      <trkpt lat="46.50748" lon="6.07288">
        <ele>1271</ele>
        <time>2023-01-05T11:47:49Z</time>
      </trkpt>
      <trkpt lat="46.50739" lon="6.07244">
        <ele>1269</ele>
        <time>2023-01-05T11:48:15Z</time>
      </trkpt>
      <trkpt lat="46.50732" lon="6.07219">
        <ele>1267</ele>
        <time>2023-01-05T11:48:30Z</time>
      </trkpt>
      <trkpt lat="46.507" lon="6.07163">
        <ele>1264</ele>
        <time>2023-01-05T11:49:10Z</time>
      </trkpt>
      <trkpt lat="46.50664" lon="6.0712">
        <ele>1259</ele>
        <time>2023-01-05T11:49:47Z</time>
      </trkpt>
      <trkpt lat="46.50633" lon="6.07084">
        <ele>1255</ele>
        <time>2023-01-05T11:50:19Z</time>
      </trkpt>
      <trkpt lat="46.50589" lon="6.07024">
        <ele>1249</ele>
        <time>2023-01-05T11:51:07Z</time>
      </trkpt>
      <trkpt lat="46.50562" lon="6.0699">
        <ele>1246</ele>
        <time>2023-01-05T11:51:36Z</time>
      </trkpt>
      <trkpt lat="46.50541" lon="6.0695">
        <ele>1244</ele>
        <time>2023-01-05T11:52:04Z</time>
      </trkpt>
      <trkpt lat="46.50508" lon="6.06889">
        <ele>1242</ele>
        <time>2023-01-05T11:52:46Z</time>
      </trkpt>
      <trkpt lat="46.50466" lon="6.06807">
        <ele>1240</ele>
        <time>2023-01-05T11:53:43Z</time>
      </trkpt>
      <trkpt lat="46.50452" lon="6.0678">
        <ele>1240</ele>
        <time>2023-01-05T11:54:01Z</time>
      </trkpt>
      <trkpt lat="46.50442" lon="6.06763">
        <ele>1240</ele>
        <time>2023-01-05T11:54:14Z</time>
      </trkpt>
      <trkpt lat="46.504" lon="6.06722">
        <ele>1237</ele>
        <time>2023-01-05T11:54:54Z</time>
      </trkpt>
      <trkpt lat="46.50389" lon="6.06715">
        <ele>1235</ele>
        <time>2023-01-05T11:55:04Z</time>
      </trkpt>
      <trkpt lat="46.50379" lon="6.06713">
        <ele>1234</ele>
        <time>2023-01-05T11:55:12Z</time>
      </trkpt>
      <trkpt lat="46.50364" lon="6.06717">
        <ele>1233</ele>
        <time>2023-01-05T11:55:24Z</time>
      </trkpt>
      <trkpt lat="46.50353" lon="6.06731">
        <ele>1232</ele>
        <time>2023-01-05T11:55:36Z</time>
      </trkpt>
      <trkpt lat="46.50345" lon="6.0674">
        <ele>1232</ele>
        <time>2023-01-05T11:55:44Z</time>
      </trkpt>
      <trkpt lat="46.50339" lon="6.06748">
        <ele>1232</ele>
        <time>2023-01-05T11:55:50Z</time>
      </trkpt>
      <trkpt lat="46.50312" lon="6.0678">
        <ele>1230</ele>
        <time>2023-01-05T11:56:18Z</time>
      </trkpt>
      <trkpt lat="46.50292" lon="6.06805">
        <ele>1228</ele>
        <time>2023-01-05T11:56:39Z</time>
      </trkpt>
      <trkpt lat="46.50279" lon="6.0682">
        <ele>1227</ele>
        <time>2023-01-05T11:56:53Z</time>
      </trkpt>
      <trkpt lat="46.50261" lon="6.06836">
        <ele>1226</ele>
        <time>2023-01-05T11:57:10Z</time>
      </trkpt>
      <trkpt lat="46.50252" lon="6.0684">
        <ele>1225</ele>
        <time>2023-01-05T11:57:17Z</time>
      </trkpt>
      <trkpt lat="46.50235" lon="6.06845">
        <ele>1225</ele>
        <time>2023-01-05T11:57:31Z</time>
      </trkpt>
      <trkpt lat="46.50215" lon="6.06843">
        <ele>1224</ele>
        <time>2023-01-05T11:57:47Z</time>
      </trkpt>
      <trkpt lat="46.50206" lon="6.06839">
        <ele>1223</ele>
        <time>2023-01-05T11:57:55Z</time>
      </trkpt>
      <trkpt lat="46.50195" lon="6.06831">
        <ele>1222</ele>
        <time>2023-01-05T11:58:04Z</time>
      </trkpt>
      <trkpt lat="46.50169" lon="6.06806">
        <ele>1219</ele>
        <time>2023-01-05T11:58:29Z</time>
      </trkpt>
      <trkpt lat="46.50139" lon="6.06777">
        <ele>1218</ele>
        <time>2023-01-05T11:58:58Z</time>
      </trkpt>
      <trkpt lat="46.50129" lon="6.06769">
        <ele>1218</ele>
        <time>2023-01-05T11:59:07Z</time>
      </trkpt>
      <trkpt lat="46.50117" lon="6.06763">
        <ele>1219</ele>
        <time>2023-01-05T11:59:17Z</time>
      </trkpt>
      <trkpt lat="46.50105" lon="6.06759">
        <ele>1220</ele>
        <time>2023-01-05T11:59:27Z</time>
      </trkpt>
      <trkpt lat="46.50082" lon="6.06758">
        <ele>1221</ele>
        <time>2023-01-05T11:59:46Z</time>
      </trkpt>
      <trkpt lat="46.50074" lon="6.06756">
        <ele>1220</ele>
        <time>2023-01-05T11:59:52Z</time>
      </trkpt>
      <trkpt lat="46.50065" lon="6.0675">
        <ele>1220</ele>
        <time>2023-01-05T12:00:00Z</time>
      </trkpt>
      <trkpt lat="46.50049" lon="6.06737">
        <ele>1220</ele>
        <time>2023-01-05T12:00:15Z</time>
      </trkpt>
      <trkpt lat="46.50017" lon="6.06711">
        <ele>1219</ele>
        <time>2023-01-05T12:00:44Z</time>
      </trkpt>
      <trkpt lat="46.50001" lon="6.06701">
        <ele>1218</ele>
        <time>2023-01-05T12:00:58Z</time>
      </trkpt>
      <trkpt lat="46.49988" lon="6.06697">
        <ele>1217</ele>
        <time>2023-01-05T12:01:09Z</time>
      </trkpt>
      <trkpt lat="46.49976" lon="6.06701">
        <ele>1216</ele>
        <time>2023-01-05T12:01:19Z</time>
      </trkpt>
      <trkpt lat="46.49949" lon="6.06717">
        <ele>1213</ele>
        <time>2023-01-05T12:01:42Z</time>
      </trkpt>
      <trkpt lat="46.49935" lon="6.0672">
        <ele>1212</ele>
        <time>2023-01-05T12:01:53Z</time>
      </trkpt>
      <trkpt lat="46.49924" lon="6.06717">
        <ele>1211</ele>
        <time>2023-01-05T12:02:02Z</time>
      </trkpt>
      <trkpt lat="46.49899" lon="6.06697">
        <ele>1210</ele>
        <time>2023-01-05T12:02:25Z</time>
      </trkpt>
      <trkpt lat="46.49885" lon="6.0669">
        <ele>1208</ele>
        <time>2023-01-05T12:02:37Z</time>
      </trkpt>
      <trkpt lat="46.49873" lon="6.0669">
        <ele>1206</ele>
        <time>2023-01-05T12:02:47Z</time>
      </trkpt>
      <trkpt lat="46.49867" lon="6.06693">
        <ele>1205</ele>
        <time>2023-01-05T12:02:52Z</time>
      </trkpt>
      <trkpt lat="46.49862" lon="6.067">
        <ele>1204</ele>
        <time>2023-01-05T12:02:57Z</time>
      </trkpt>
      <trkpt lat="46.49852" lon="6.06721">
        <ele>1202</ele>
        <time>2023-01-05T12:03:11Z</time>
      </trkpt>
      <trkpt lat="46.49845" lon="6.06736">
        <ele>1201</ele>
        <time>2023-01-05T12:03:21Z</time>
      </trkpt>
      <trkpt lat="46.49839" lon="6.06755">
        <ele>1199</ele>
        <time>2023-01-05T12:03:33Z</time>
      </trkpt>
      <trkpt lat="46.49842" lon="6.06726">
        <ele>1201</ele>
        <time>2023-01-05T12:03:49Z</time>
      </trkpt>
      <trkpt lat="46.49834" lon="6.06671">
        <ele>1201</ele>
        <time>2023-01-05T12:04:20Z</time>
      </trkpt>
      <trkpt lat="46.49813" lon="6.06617">
        <ele>1202</ele>
        <time>2023-01-05T12:04:54Z</time>
      </trkpt>
      <trkpt lat="46.49782" lon="6.06539">
        <ele>1203</ele>
        <time>2023-01-05T12:05:44Z</time>
      </trkpt>
      <trkpt lat="46.49754" lon="6.06486">
        <ele>1201</ele>
        <time>2023-01-05T12:06:21Z</time>
      </trkpt>
      <trkpt lat="46.49722" lon="6.06423">
        <ele>1199</ele>
        <time>2023-01-05T12:07:04Z</time>
      </trkpt>
      <trkpt lat="46.49709" lon="6.06396">
        <ele>1199</ele>
        <time>2023-01-05T12:07:22Z</time>
      </trkpt>
      <trkpt lat="46.49677" lon="6.06377">
        <ele>1195</ele>
        <time>2023-01-05T12:07:50Z</time>
      </trkpt>
      <trkpt lat="46.49647" lon="6.06365">
        <ele>1191</ele>
        <time>2023-01-05T12:08:15Z</time>
      </trkpt>
      <trkpt lat="46.49622" lon="6.06364">
        <ele>1187</ele>
        <time>2023-01-05T12:08:35Z</time>
      </trkpt>
      <trkpt lat="46.4959" lon="6.06317">
        <ele>1183</ele>
        <time>2023-01-05T12:09:11Z</time>
      </trkpt>
      <trkpt lat="46.49559" lon="6.06292">
        <ele>1179</ele>
        <time>2023-01-05T12:09:39Z</time>
      </trkpt>
      <trkpt lat="46.49538" lon="6.06267">
        <ele>1178</ele>
        <time>2023-01-05T12:10:01Z</time>
      </trkpt>
      <trkpt lat="46.49527" lon="6.06254">
        <ele>1177</ele>
        <time>2023-01-05T12:10:13Z</time>
      </trkpt>
      <trkpt lat="46.49521" lon="6.06244">
        <ele>1177</ele>
        <time>2023-01-05T12:10:20Z</time>
      </trkpt>
      <trkpt lat="46.49511" lon="6.06232">
        <ele>1175</ele>
        <time>2023-01-05T12:10:30Z</time>
      </trkpt>
      <trkpt lat="46.49485" lon="6.06212">
        <ele>1170</ele>
        <time>2023-01-05T12:10:54Z</time>
      </trkpt>
      <trkpt lat="46.49455" lon="6.06189">
        <ele>1164</ele>
        <time>2023-01-05T12:11:21Z</time>
      </trkpt>
      <trkpt lat="46.49429" lon="6.06167">
        <ele>1159</ele>
        <time>2023-01-05T12:11:45Z</time>
      </trkpt>
      <trkpt lat="46.49388" lon="6.06127">
        <ele>1152</ele>
        <time>2023-01-05T12:12:25Z</time>
      </trkpt>
      <trkpt lat="46.49349" lon="6.06081">
        <ele>1146</ele>
        <time>2023-01-05T12:13:05Z</time>
      </trkpt>
      <trkpt lat="46.4932" lon="6.06037">
        <ele>1141</ele>
        <time>2023-01-05T12:13:38Z</time>
      </trkpt>
      <trkpt lat="46.49289" lon="6.05996">
        <ele>1133</ele>
        <time>2023-01-05T12:14:12Z</time>
      </trkpt>
      <trkpt lat="46.49276" lon="6.05977">
        <ele>1129</ele>
        <time>2023-01-05T12:14:27Z</time>
      </trkpt>
      <trkpt lat="46.49258" lon="6.05956">
        <ele>1124</ele>
        <time>2023-01-05T12:14:45Z</time>
      </trkpt>
      <trkpt lat="46.4924" lon="6.05934">
        <ele>1120</ele>
        <time>2023-01-05T12:15:04Z</time>
      </trkpt>
      <trkpt lat="46.49222" lon="6.05896">
        <ele>1120</ele>
        <time>2023-01-05T12:15:29Z</time>
      </trkpt>
      <trkpt lat="46.49206" lon="6.0588">
        <ele>1118</ele>
        <time>2023-01-05T12:15:45Z</time>
      </trkpt>
      <trkpt lat="46.49192" lon="6.05882">
        <ele>1114</ele>
        <time>2023-01-05T12:15:56Z</time>
      </trkpt>
      <trkpt lat="46.49168" lon="6.05894">
        <ele>1107</ele>
        <time>2023-01-05T12:16:17Z</time>
      </trkpt>
      <trkpt lat="46.49159" lon="6.0588">
        <ele>1107</ele>
        <time>2023-01-05T12:16:27Z</time>
      </trkpt>
      <trkpt lat="46.49169" lon="6.05878">
        <ele>1109</ele>
        <time>2023-01-05T12:16:35Z</time>
      </trkpt>
    </trkseg>
  </trk>
</gpx>